createdAt,value
2023-07-16T00:03:44.046Z,991.98
2023-07-16T00:08:44.038Z,991.97
2023-07-16T00:13:46.977Z,991.92
2023-07-16T00:18:43.842Z,992.05
2023-07-16T00:23:44.004Z,992.05
2023-07-16T00:28:43.689Z,992.01
2023-07-16T00:33:43.720Z,992.05
2023-07-16T00:38:43.634Z,992.06
2023-07-16T00:43:43.561Z,991.95
2023-07-16T00:48:43.399Z,991.96
2023-07-16T00:53:43.437Z,992.02
2023-07-16T00:58:43.263Z,992.10
2023-07-16T01:03:43.297Z,991.87
2023-07-16T01:08:43.147Z,991.73
2023-07-16T01:13:46.119Z,991.62
2023-07-16T01:18:43.029Z,991.48
2023-07-16T01:23:43.025Z,991.69
2023-07-16T01:28:42.896Z,991.87
2023-07-16T01:33:43.409Z,992.03
2023-07-16T01:38:42.745Z,992.23
2023-07-16T01:43:42.763Z,992.28
2023-07-16T01:48:42.596Z,992.15
2023-07-16T01:53:42.610Z,992.32
2023-07-16T01:58:42.499Z,992.17
2023-07-16T02:03:42.539Z,992.03
2023-07-16T02:08:42.315Z,992.02
2023-07-16T02:13:45.344Z,992.14
2023-07-16T02:18:42.193Z,991.86
2023-07-16T02:23:42.189Z,991.89
2023-07-16T02:28:42.074Z,991.86
2023-07-16T02:33:42.050Z,991.75
2023-07-16T02:38:41.938Z,991.62
2023-07-16T02:43:42.284Z,991.24
2023-07-16T02:48:41.796Z,991.35
2023-07-16T02:53:41.785Z,991.25
2023-07-16T02:58:41.663Z,991.10
2023-07-16T03:03:41.658Z,991.35
2023-07-16T03:08:41.562Z,991.51
2023-07-16T03:13:44.518Z,991.57
2023-07-16T03:18:41.384Z,991.94
2023-07-16T03:23:41.380Z,992.18
2023-07-16T03:28:41.278Z,992.34
2023-07-16T03:33:41.269Z,992.57
2023-07-16T03:38:41.126Z,992.85
2023-07-16T03:43:41.143Z,992.84
2023-07-16T03:48:41.073Z,992.93
2023-07-16T03:53:41.228Z,993.11
2023-07-16T03:58:40.893Z,993.01
2023-07-16T04:03:40.877Z,992.96
2023-07-16T04:08:40.704Z,992.99
2023-07-16T04:13:43.689Z,993.08
2023-07-16T04:18:40.640Z,993.15
2023-07-16T04:23:40.568Z,993.15
2023-07-16T04:28:40.484Z,993.18
2023-07-16T04:33:40.583Z,993.33
2023-07-16T04:38:40.353Z,993.53
2023-07-16T04:43:40.393Z,993.61
2023-07-16T04:48:40.262Z,993.69
2023-07-16T04:53:40.222Z,993.77
2023-07-16T04:58:40.079Z,993.69
2023-07-16T05:03:40.259Z,993.61
2023-07-16T05:08:39.986Z,993.62
2023-07-16T05:13:42.889Z,993.73
2023-07-16T05:18:39.879Z,993.89
2023-07-16T05:23:39.778Z,993.93
2023-07-16T05:28:39.694Z,994.00
2023-07-16T05:33:39.761Z,994.12
2023-07-16T05:38:39.574Z,994.09
2023-07-16T05:43:39.520Z,994.28
2023-07-16T05:48:39.437Z,994.35
2023-07-16T05:53:39.417Z,994.42
2023-07-16T05:58:39.270Z,994.39
2023-07-16T06:03:39.350Z,994.41
2023-07-16T06:08:39.178Z,994.28
2023-07-16T06:13:42.130Z,994.43
2023-07-16T06:18:39.045Z,994.47
2023-07-16T06:23:39.179Z,994.52
2023-07-16T06:28:38.905Z,994.47
2023-07-16T06:33:38.927Z,994.65
2023-07-16T06:38:38.777Z,994.67
2023-07-16T06:43:38.721Z,994.63
2023-07-16T06:48:38.670Z,994.82
2023-07-16T06:53:38.657Z,994.87
2023-07-16T06:58:38.574Z,994.98
2023-07-16T07:03:38.649Z,994.85
2023-07-16T07:08:38.432Z,994.82
2023-07-16T07:13:41.780Z,994.77
2023-07-16T07:18:38.308Z,994.57
2023-07-16T07:23:38.246Z,994.50
2023-07-16T07:28:38.176Z,994.57
2023-07-16T07:33:38.110Z,994.79
2023-07-16T07:38:38.034Z,994.74
2023-07-16T07:43:37.971Z,994.80
2023-07-16T07:48:37.967Z,994.74
2023-07-16T07:53:37.866Z,994.85
2023-07-16T07:58:37.767Z,994.84
2023-07-16T08:03:37.995Z,994.91
2023-07-16T08:08:37.631Z,994.68
2023-07-16T08:13:48.231Z,994.75
2023-07-16T08:18:37.494Z,994.77
2023-07-16T08:23:46.234Z,994.85
2023-07-16T08:28:37.371Z,995.05
2023-07-16T08:33:37.392Z,995.34
2023-07-16T08:38:37.317Z,995.35
2023-07-16T08:43:37.247Z,995.11
2023-07-16T08:48:37.149Z,995.08
2023-07-16T08:53:37.107Z,995.16
2023-07-16T08:58:37.001Z,995.12
2023-07-16T09:03:36.967Z,995.16
2023-07-16T09:08:36.892Z,995.18
2023-07-16T09:13:39.882Z,995.15
2023-07-16T09:18:36.808Z,995.24
2023-07-16T09:23:36.809Z,995.19
2023-07-16T09:28:36.658Z,995.23
2023-07-16T09:33:36.591Z,995.23
2023-07-16T09:38:36.511Z,995.17
2023-07-16T09:43:36.440Z,995.34
2023-07-16T09:48:36.369Z,995.26
2023-07-16T09:53:36.385Z,995.23
2023-07-16T09:58:36.239Z,995.39
2023-07-16T10:03:36.197Z,995.29
2023-07-16T10:08:36.142Z,995.19
2023-07-16T10:13:39.179Z,995.28
2023-07-16T10:18:36.037Z,995.26
2023-07-16T10:23:35.976Z,995.11
2023-07-16T10:28:35.914Z,995.45
2023-07-16T10:33:36.186Z,995.41
2023-07-16T10:38:35.762Z,995.28
2023-07-16T10:43:35.747Z,995.36
2023-07-16T10:48:35.573Z,995.40
2023-07-16T10:53:35.590Z,995.21
2023-07-16T10:58:35.651Z,995.28
2023-07-16T11:03:35.638Z,995.26
2023-07-16T11:08:35.302Z,995.26
2023-07-16T11:13:38.364Z,995.33
2023-07-16T11:18:35.186Z,995.25
2023-07-16T11:23:35.235Z,995.13
2023-07-16T11:28:35.069Z,995.10
2023-07-16T11:33:35.101Z,995.23
2023-07-16T11:38:34.926Z,995.30
2023-07-16T11:43:34.993Z,995.23
2023-07-16T11:48:34.802Z,995.33
2023-07-16T11:53:37.104Z,995.25
2023-07-16T11:58:34.774Z,995.35
2023-07-16T12:03:34.711Z,995.16
2023-07-16T12:08:34.504Z,995.25
2023-07-16T12:13:37.502Z,995.25
2023-07-16T12:18:34.442Z,995.33
2023-07-16T12:23:34.341Z,995.26
2023-07-16T12:28:34.247Z,995.25
2023-07-16T12:33:34.197Z,995.17
2023-07-16T12:38:34.079Z,995.23
2023-07-16T12:43:35.863Z,995.20
2023-07-16T12:48:33.987Z,995.26
2023-07-16T12:53:34.274Z,995.13
2023-07-16T12:58:33.860Z,995.12
2023-07-16T13:03:33.897Z,995.10
2023-07-16T13:08:33.841Z,995.17
2023-07-16T13:13:36.748Z,995.14
2023-07-16T13:18:33.590Z,995.30
2023-07-16T13:23:33.552Z,995.19
2023-07-16T13:28:33.463Z,995.17
2023-07-16T13:33:33.438Z,995.22
2023-07-16T13:38:33.360Z,995.22
2023-07-16T13:43:33.280Z,995.32
2023-07-16T13:48:44.067Z,995.21
2023-07-16T13:53:34.273Z,995.30
2023-07-16T13:58:33.044Z,995.17
2023-07-16T14:03:33.152Z,995.14
2023-07-16T14:08:32.892Z,995.12
2023-07-16T14:13:35.882Z,995.14
2023-07-16T14:18:32.774Z,995.18
2023-07-16T14:23:32.801Z,995.17
2023-07-16T14:28:32.673Z,995.19
2023-07-16T14:33:32.653Z,995.12
2023-07-16T14:38:32.538Z,995.09
2023-07-16T14:43:32.613Z,995.08
2023-07-16T14:48:32.476Z,995.12
2023-07-16T14:53:32.481Z,995.18
2023-07-16T14:58:32.364Z,995.15
2023-07-16T15:03:32.410Z,995.05
2023-07-16T15:08:32.183Z,994.99
2023-07-16T15:13:35.177Z,994.98
2023-07-16T15:18:32.048Z,995.02
2023-07-16T15:23:32.059Z,995.00
2023-07-16T15:28:31.928Z,994.96
2023-07-16T15:33:31.929Z,994.94
2023-07-16T15:38:31.811Z,995.00
2023-07-16T15:43:31.804Z,994.93
2023-07-16T15:48:32.663Z,994.96
2023-07-16T15:53:31.599Z,994.96
2023-07-16T15:58:31.539Z,994.88
2023-07-16T16:03:31.888Z,995.01
2023-07-16T16:08:31.353Z,995.08
2023-07-16T16:13:34.348Z,994.95
2023-07-16T16:18:31.453Z,994.98
2023-07-16T16:23:31.194Z,994.99
2023-07-16T16:28:31.093Z,994.95
2023-07-16T16:33:31.059Z,995.00
2023-07-16T16:38:30.967Z,995.06
2023-07-16T16:43:30.934Z,995.07
2023-07-16T16:48:30.849Z,995.14
2023-07-16T16:53:30.788Z,995.13
2023-07-16T16:58:39.493Z,995.14
2023-07-16T17:03:37.767Z,995.08
2023-07-16T17:08:30.966Z,995.09
2023-07-16T17:13:33.552Z,995.15
2023-07-16T17:18:30.532Z,995.17
2023-07-16T17:23:30.380Z,995.19
2023-07-16T17:28:30.270Z,995.18
2023-07-16T17:33:30.268Z,995.31
2023-07-16T17:38:30.144Z,995.27
2023-07-16T17:43:32.744Z,995.37
2023-07-16T17:48:32.689Z,995.34
2023-07-16T17:53:29.997Z,995.41
2023-07-16T17:58:29.880Z,995.43
2023-07-16T18:03:30.011Z,995.35
2023-07-16T18:08:29.737Z,995.39
2023-07-16T18:13:32.840Z,995.41
2023-07-16T18:18:29.629Z,995.41
2023-07-16T18:23:29.638Z,995.42
2023-07-16T18:28:29.519Z,995.49
2023-07-16T18:33:29.497Z,995.56
2023-07-16T18:38:29.389Z,995.53
2023-07-16T18:43:29.366Z,995.56
2023-07-16T18:48:29.244Z,995.67
2023-07-16T18:53:29.955Z,995.80
2023-07-16T18:58:29.124Z,995.76
2023-07-16T19:03:29.179Z,995.88
2023-07-16T19:08:29.004Z,995.90
2023-07-16T19:13:31.948Z,995.91
2023-07-16T19:18:28.923Z,995.95
2023-07-16T19:23:28.900Z,996.11
2023-07-16T19:28:28.725Z,996.20
2023-07-16T19:33:28.675Z,996.27
2023-07-16T19:38:28.558Z,996.33
2023-07-16T19:43:28.527Z,996.28
2023-07-16T19:48:28.432Z,996.32
2023-07-16T19:53:28.416Z,996.37
2023-07-16T19:58:28.304Z,996.37
2023-07-16T20:03:28.263Z,996.43
2023-07-16T20:08:28.177Z,996.43
2023-07-16T20:13:32.038Z,996.44
2023-07-16T20:18:28.036Z,996.48
2023-07-16T20:23:28.043Z,996.56
2023-07-16T20:28:27.900Z,996.62
2023-07-16T20:33:28.000Z,996.63
2023-07-16T20:38:27.802Z,996.57
2023-07-16T20:43:27.750Z,996.64
2023-07-16T20:48:27.730Z,996.71
2023-07-16T20:53:27.665Z,996.76
2023-07-16T20:58:27.541Z,996.80
2023-07-16T21:03:27.618Z,996.77
2023-07-16T21:08:27.357Z,996.74
2023-07-16T21:13:30.428Z,996.75
2023-07-16T21:18:27.248Z,996.81
2023-07-16T21:23:27.233Z,996.83
2023-07-16T21:28:27.106Z,996.80
2023-07-16T21:33:27.155Z,996.88
2023-07-16T21:38:26.974Z,996.96
2023-07-16T21:43:27.220Z,996.94
2023-07-16T21:48:26.848Z,996.92
2023-07-16T21:53:26.826Z,996.97
2023-07-16T21:58:26.715Z,996.94
2023-07-16T22:03:26.689Z,996.96
2023-07-16T22:08:26.576Z,997.09
2023-07-16T22:13:29.607Z,997.07
2023-07-16T22:18:26.471Z,997.21
2023-07-16T22:23:26.448Z,997.07
2023-07-16T22:28:26.301Z,997.13
2023-07-16T22:33:26.335Z,997.20
2023-07-16T22:38:26.172Z,997.26
2023-07-16T22:43:26.178Z,997.24
2023-07-16T22:48:26.038Z,997.22
2023-07-16T22:53:26.277Z,997.38
2023-07-16T22:58:25.884Z,997.39
2023-07-16T23:03:26.028Z,997.41
2023-07-16T23:08:25.848Z,997.45
2023-07-16T23:13:28.778Z,997.35
2023-07-16T23:18:25.662Z,997.43
2023-07-16T23:23:25.664Z,997.46
2023-07-16T23:28:25.541Z,997.46
2023-07-16T23:33:25.548Z,997.44
2023-07-16T23:38:25.363Z,997.36
2023-07-16T23:43:25.318Z,997.43
2023-07-16T23:48:25.203Z,997.33
2023-07-16T23:53:25.304Z,997.29
2023-07-16T23:58:25.162Z,997.26
